sensor_id;sensor_type;location;lat;lon;timestamp;pressure;altitude;pressure_sealevel;temperature;humidity
15674;BME280;7937;48.090;16.212;2023-02-08T00:01:46;99987.97;;;-5.65;66.82
15674;BME280;7937;48.090;16.212;2023-02-08T00:04:48;99983.75;;;-5.67;66.81
15674;BME280;7937;48.090;16.212;2023-02-08T00:07:50;99979.66;;;-5.72;66.45
15674;BME280;7937;48.090;16.212;2023-02-08T00:10:52;99990.13;;;-5.73;66.54
15674;BME280;7937;48.090;16.212;2023-02-08T00:13:54;99995.16;;;-5.70;66.45
15674;BME280;7937;48.090;16.212;2023-02-08T00:16:56;100000.41;;;-5.72;65.98
15674;BME280;7937;48.090;16.212;2023-02-08T00:19:58;99997.91;;;-5.73;65.85
15674;BME280;7937;48.090;16.212;2023-02-08T00:23:00;100001.53;;;-5.76;65.89
15674;BME280;7937;48.090;16.212;2023-02-08T00:26:02;99977.22;;;-5.90;65.89
15674;BME280;7937;48.090;16.212;2023-02-08T00:29:04;100003.34;;;-5.78;66.10
15674;BME280;7937;48.090;16.212;2023-02-08T00:32:08;100001.66;;;-5.79;65.75
15674;BME280;7937;48.090;16.212;2023-02-08T00:35:11;100005.53;;;-5.86;65.88
15674;BME280;7937;48.090;16.212;2023-02-08T00:38:13;99987.28;;;-6.00;65.43
15674;BME280;7937;48.090;16.212;2023-02-08T00:41:15;100007.09;;;-5.99;65.93
15674;BME280;7937;48.090;16.212;2023-02-08T00:44:17;99998.81;;;-6.06;66.14
15674;BME280;7937;48.090;16.212;2023-02-08T00:47:19;99999.19;;;-6.13;66.07
15674;BME280;7937;48.090;16.212;2023-02-08T00:50:21;99998.75;;;-6.21;66.29
15674;BME280;7937;48.090;16.212;2023-02-08T00:53:24;100001.28;;;-6.20;66.37
15674;BME280;7937;48.090;16.212;2023-02-08T00:56:26;100002.03;;;-6.18;66.45
15674;BME280;7937;48.090;16.212;2023-02-08T00:59:28;99991.78;;;-6.21;66.28
15674;BME280;7937;48.090;16.212;2023-02-08T01:02:30;99999.53;;;-6.19;66.30
15674;BME280;7937;48.090;16.212;2023-02-08T01:05:32;99989.28;;;-6.22;66.20
15674;BME280;7937;48.090;16.212;2023-02-08T01:08:35;100000.06;;;-6.30;66.38
15674;BME280;7937;48.090;16.212;2023-02-08T01:11:37;99987.34;;;-6.35;66.61
15674;BME280;7937;48.090;16.212;2023-02-08T01:14:40;100000.53;;;-6.39;66.54
15674;BME280;7937;48.090;16.212;2023-02-08T01:17:42;100006.78;;;-6.43;67.08
15674;BME280;7937;48.090;16.212;2023-02-08T01:20:44;99997.63;;;-6.51;66.98
15674;BME280;7937;48.090;16.212;2023-02-08T01:23:47;99950.97;;;-6.85;66.98
15674;BME280;7937;48.090;16.212;2023-02-08T01:26:49;99963.31;;;-6.90;67.29
15674;BME280;7937;48.090;16.212;2023-02-08T01:29:51;99999.63;;;-6.73;67.50
15674;BME280;7937;48.090;16.212;2023-02-08T01:32:54;100008.94;;;-6.69;67.62
15674;BME280;7937;48.090;16.212;2023-02-08T01:35:56;100009.06;;;-6.72;67.76
15674;BME280;7937;48.090;16.212;2023-02-08T01:38:58;100008.97;;;-6.70;67.64
15674;BME280;7937;48.090;16.212;2023-02-08T01:42:00;100008.31;;;-6.74;67.98
15674;BME280;7937;48.090;16.212;2023-02-08T01:48:21;100006.63;;;-6.58;67.76
15674;BME280;7937;48.090;16.212;2023-02-08T01:51:31;100013.25;;;-6.52;67.87
15674;BME280;7937;48.090;16.212;2023-02-08T01:54:38;100014.72;;;-6.46;67.15
15674;BME280;7937;48.090;16.212;2023-02-08T01:57:42;99987.19;;;-6.66;67.03
15674;BME280;7937;48.090;16.212;2023-02-08T02:00:45;100018.53;;;-6.54;67.54
15674;BME280;7937;48.090;16.212;2023-02-08T02:03:48;100020.81;;;-6.65;68.24
15674;BME280;7937;48.090;16.212;2023-02-08T02:06:53;100012.75;;;-6.59;68.47
15674;BME280;7937;48.090;16.212;2023-02-08T02:10:13;100009.59;;;-6.48;68.32
15674;BME280;7937;48.090;16.212;2023-02-08T02:13:21;99971.19;;;-6.57;68.17
15674;BME280;7937;48.090;16.212;2023-02-08T02:16:24;99996.31;;;-6.25;67.70
15674;BME280;7937;48.090;16.212;2023-02-08T02:19:36;100006.38;;;-6.18;67.77
15674;BME280;7937;48.090;16.212;2023-02-08T02:45:35;99992.47;;;-6.17;67.87
15674;BME280;7937;48.090;16.212;2023-02-08T02:48:49;100015.50;;;-5.94;67.69
15674;BME280;7937;48.090;16.212;2023-02-08T02:52:15;99991.25;;;-6.10;67.87
15674;BME280;7937;48.090;16.212;2023-02-08T02:55:21;100006.94;;;-5.96;67.78
15674;BME280;7937;48.090;16.212;2023-02-08T02:58:26;100020.59;;;-5.92;67.20
15674;BME280;7937;48.090;16.212;2023-02-08T03:01:30;100028.38;;;-5.92;66.88
15674;BME280;7937;48.090;16.212;2023-02-08T03:07:38;100015.22;;;-5.89;67.08
15674;BME280;7937;48.090;16.212;2023-02-08T03:10:50;100017.56;;;-5.85;67.14
15674;BME280;7937;48.090;16.212;2023-02-08T03:17:30;100037.50;;;-5.85;66.52
15674;BME280;7937;48.090;16.212;2023-02-08T03:20:39;100038.41;;;-5.86;66.36
15674;BME280;7937;48.090;16.212;2023-02-08T03:28:02;100036.34;;;-6.13;67.13
15674;BME280;7937;48.090;16.212;2023-02-08T03:34:49;100021.72;;;-6.14;67.15
15674;BME280;7937;48.090;16.212;2023-02-08T03:38:15;100021.84;;;-6.17;66.96
15674;BME280;7937;48.090;16.212;2023-02-08T03:41:26;100018.59;;;-6.20;67.24
15674;BME280;7937;48.090;16.212;2023-02-08T03:44:37;100014.31;;;-6.21;67.29
15674;BME280;7937;48.090;16.212;2023-02-08T03:47:44;100021.00;;;-6.17;66.93
15674;BME280;7937;48.090;16.212;2023-02-08T03:50:51;100014.25;;;-6.20;66.61
15674;BME280;7937;48.090;16.212;2023-02-08T03:53:56;99990.81;;;-6.36;67.03
15674;BME280;7937;48.090;16.212;2023-02-08T03:57:11;100010.44;;;-6.30;66.67
15674;BME280;7937;48.090;16.212;2023-02-08T04:00:16;100013.03;;;-6.30;66.43
15674;BME280;7937;48.090;16.212;2023-02-08T04:03:23;100008.97;;;-6.36;66.32
15674;BME280;7937;48.090;16.212;2023-02-08T04:06:27;100024.75;;;-6.40;66.12
15674;BME280;7937;48.090;16.212;2023-02-08T04:09:29;100014.72;;;-6.46;66.23
15674;BME280;7937;48.090;16.212;2023-02-08T04:12:31;100029.44;;;-6.47;66.06
15674;BME280;7937;48.090;16.212;2023-02-08T04:15:33;100023.94;;;-6.58;66.23
15674;BME280;7937;48.090;16.212;2023-02-08T04:18:35;100030.50;;;-6.68;66.37
15674;BME280;7937;48.090;16.212;2023-02-08T04:21:37;100025.63;;;-6.74;65.87
15674;BME280;7937;48.090;16.212;2023-02-08T04:24:39;100025.75;;;-6.78;66.31
15674;BME280;7937;48.090;16.212;2023-02-08T04:27:42;99999.34;;;-7.03;66.22
15674;BME280;7937;48.090;16.212;2023-02-08T04:30:44;100036.56;;;-6.87;66.72
15674;BME280;7937;48.090;16.212;2023-02-08T04:33:46;100019.66;;;-6.94;67.23
15674;BME280;7937;48.090;16.212;2023-02-08T04:36:48;100015.31;;;-6.93;67.39
15674;BME280;7937;48.090;16.212;2023-02-08T04:39:50;100013.63;;;-6.94;67.00
15674;BME280;7937;48.090;16.212;2023-02-08T04:42:52;100009.19;;;-6.92;66.36
15674;BME280;7937;48.090;16.212;2023-02-08T04:45:54;99997.75;;;-7.06;66.45
15674;BME280;7937;48.090;16.212;2023-02-08T04:48:56;100014.81;;;-7.02;66.87
15674;BME280;7937;48.090;16.212;2023-02-08T04:51:59;100007.97;;;-7.03;66.79
15674;BME280;7937;48.090;16.212;2023-02-08T04:55:01;99970.28;;;-7.27;66.67
15674;BME280;7937;48.090;16.212;2023-02-08T04:58:03;100025.25;;;-7.03;66.39
15674;BME280;7937;48.090;16.212;2023-02-08T05:01:07;100018.97;;;-7.16;66.55
15674;BME280;7937;48.090;16.212;2023-02-08T05:04:11;99978.78;;;-7.42;66.42
15674;BME280;7937;48.090;16.212;2023-02-08T05:07:13;100020.72;;;-7.17;66.52
15674;BME280;7937;48.090;16.212;2023-02-08T05:10:16;100022.81;;;-7.25;66.57
15674;BME280;7937;48.090;16.212;2023-02-08T05:13:18;100009.81;;;-7.23;66.43
15674;BME280;7937;48.090;16.212;2023-02-08T05:16:20;100021.66;;;-7.18;66.56
15674;BME280;7937;48.090;16.212;2023-02-08T05:19:22;100023.13;;;-7.31;66.66
15674;BME280;7937;48.090;16.212;2023-02-08T05:22:24;100035.31;;;-7.33;66.95
15674;BME280;7937;48.090;16.212;2023-02-08T05:25:26;100031.59;;;-7.28;66.62
15674;BME280;7937;48.090;16.212;2023-02-08T05:28:28;100039.16;;;-7.23;66.17
15674;BME280;7937;48.090;16.212;2023-02-08T05:31:30;100034.88;;;-7.24;65.90
15674;BME280;7937;48.090;16.212;2023-02-08T05:34:32;100036.47;;;-7.21;65.99
15674;BME280;7937;48.090;16.212;2023-02-08T05:37:34;100026.94;;;-7.21;65.56
15674;BME280;7937;48.090;16.212;2023-02-08T05:40:36;100048.16;;;-7.32;65.90
15674;BME280;7937;48.090;16.212;2023-02-08T05:43:38;100006.03;;;-7.54;65.84
15674;BME280;7937;48.090;16.212;2023-02-08T05:46:41;100055.81;;;-7.47;66.57
15674;BME280;7937;48.090;16.212;2023-02-08T05:49:43;100049.50;;;-7.42;65.95
15674;BME280;7937;48.090;16.212;2023-02-08T05:52:45;100057.75;;;-7.53;65.93
15674;BME280;7937;48.090;16.212;2023-02-08T05:55:47;100066.44;;;-7.54;66.15
15674;BME280;7937;48.090;16.212;2023-02-08T05:58:49;100074.84;;;-7.48;65.49
15674;BME280;7937;48.090;16.212;2023-02-08T06:01:51;100067.13;;;-7.50;65.90
15674;BME280;7937;48.090;16.212;2023-02-08T06:04:53;100060.88;;;-7.65;65.98
15674;BME280;7937;48.090;16.212;2023-02-08T06:07:55;100078.28;;;-7.48;65.69
15674;BME280;7937;48.090;16.212;2023-02-08T06:10:57;100085.59;;;-7.58;65.98
15674;BME280;7937;48.090;16.212;2023-02-08T06:13:59;100089.91;;;-7.77;66.57
15674;BME280;7937;48.090;16.212;2023-02-08T06:17:01;100098.75;;;-7.62;65.78
15674;BME280;7937;48.090;16.212;2023-02-08T06:20:04;100091.25;;;-7.68;66.05
15674;BME280;7937;48.090;16.212;2023-02-08T06:23:06;100099.38;;;-7.57;66.26
15674;BME280;7937;48.090;16.212;2023-02-08T06:26:08;100094.84;;;-7.52;65.62
15674;BME280;7937;48.090;16.212;2023-02-08T06:29:10;100101.69;;;-7.51;66.29
15674;BME280;7937;48.090;16.212;2023-02-08T06:32:12;100104.59;;;-7.59;66.29
15674;BME280;7937;48.090;16.212;2023-02-08T06:35:14;100109.25;;;-7.46;66.04
15674;BME280;7937;48.090;16.212;2023-02-08T06:38:17;100123.78;;;-7.44;66.10
15674;BME280;7937;48.090;16.212;2023-02-08T06:41:19;100117.94;;;-7.47;66.00
15674;BME280;7937;48.090;16.212;2023-02-08T06:44:21;100118.22;;;-7.54;66.45
15674;BME280;7937;48.090;16.212;2023-02-08T06:47:24;100115.91;;;-7.41;65.99
15674;BME280;7937;48.090;16.212;2023-02-08T06:50:27;100090.28;;;-7.47;65.92
15674;BME280;7937;48.090;16.212;2023-02-08T06:53:29;100114.38;;;-7.26;65.80
15674;BME280;7937;48.090;16.212;2023-02-08T06:56:31;100107.44;;;-7.25;66.01
15674;BME280;7937;48.090;16.212;2023-02-08T06:59:33;100116.47;;;-7.15;65.96
15674;BME280;7937;48.090;16.212;2023-02-08T07:02:35;100112.50;;;-7.04;65.84
15674;BME280;7937;48.090;16.212;2023-02-08T07:05:38;100050.06;;;-7.16;65.85
15674;BME280;7937;48.090;16.212;2023-02-08T07:08:41;100059.78;;;-7.03;65.83
15674;BME280;7937;48.090;16.212;2023-02-08T07:11:43;100074.81;;;-6.92;66.27
15674;BME280;7937;48.090;16.212;2023-02-08T07:14:45;100061.94;;;-6.76;66.41
15674;BME280;7937;48.090;16.212;2023-02-08T07:17:47;100072.72;;;-6.66;66.01
15674;BME280;7937;48.090;16.212;2023-02-08T07:20:49;100071.75;;;-6.64;66.35
15674;BME280;7937;48.090;16.212;2023-02-08T07:23:51;100074.72;;;-6.54;66.53
15674;BME280;7937;48.090;16.212;2023-02-08T07:26:53;100087.09;;;-6.42;66.21
15674;BME280;7937;48.090;16.212;2023-02-08T07:29:55;100095.41;;;-6.35;66.08
15674;BME280;7937;48.090;16.212;2023-02-08T07:32:57;100107.16;;;-6.28;66.19
15674;BME280;7937;48.090;16.212;2023-02-08T07:35:59;100108.59;;;-6.22;65.94
15674;BME280;7937;48.090;16.212;2023-02-08T07:39:02;100122.19;;;-6.00;65.97
15674;BME280;7937;48.090;16.212;2023-02-08T07:42:04;100124.78;;;-5.67;65.57
15674;BME280;7937;48.090;16.212;2023-02-08T07:45:14;100110.63;;;-5.28;64.65
15674;BME280;7937;48.090;16.212;2023-02-08T07:48:16;100101.19;;;-5.13;63.91
15674;BME280;7937;48.090;16.212;2023-02-08T07:51:18;100068.06;;;-5.41;64.58
15674;BME280;7937;48.090;16.212;2023-02-08T07:54:20;100100.94;;;-5.25;65.01
15674;BME280;7937;48.090;16.212;2023-02-08T07:57:22;100097.06;;;-5.18;65.11
15674;BME280;7937;48.090;16.212;2023-02-08T08:00:25;100099.84;;;-5.21;65.52
15674;BME280;7937;48.090;16.212;2023-02-08T08:03:27;100098.69;;;-5.15;65.73
15674;BME280;7937;48.090;16.212;2023-02-08T08:06:29;100114.78;;;-5.08;65.77
15674;BME280;7937;48.090;16.212;2023-02-08T08:09:31;100107.00;;;-4.93;65.66
15674;BME280;7937;48.090;16.212;2023-02-08T08:12:34;100113.09;;;-4.94;66.35
15674;BME280;7937;48.090;16.212;2023-02-08T08:15:36;100125.94;;;-4.90;66.61
15674;BME280;7937;48.090;16.212;2023-02-08T08:18:38;100107.56;;;-4.72;66.25
15674;BME280;7937;48.090;16.212;2023-02-08T08:21:40;100109.00;;;-4.66;66.54
15674;BME280;7937;48.090;16.212;2023-02-08T08:24:42;100116.78;;;-4.50;66.82
15674;BME280;7937;48.090;16.212;2023-02-08T08:27:44;100126.25;;;-4.33;66.67
15674;BME280;7937;48.090;16.212;2023-02-08T08:30:46;100113.25;;;-4.19;66.67
15674;BME280;7937;48.090;16.212;2023-02-08T08:33:49;100120.38;;;-4.07;66.69
15674;BME280;7937;48.090;16.212;2023-02-08T08:36:51;100124.25;;;-3.84;66.67
15674;BME280;7937;48.090;16.212;2023-02-08T08:39:53;100127.53;;;-3.52;66.33
15674;BME280;7937;48.090;16.212;2023-02-08T08:42:55;100120.00;;;-3.14;66.01
15674;BME280;7937;48.090;16.212;2023-02-08T08:45:58;100110.34;;;-2.84;65.08
15674;BME280;7937;48.090;16.212;2023-02-08T08:49:00;100107.47;;;-2.53;64.78
15674;BME280;7937;48.090;16.212;2023-02-08T08:52:02;100092.81;;;-2.28;63.93
15674;BME280;7937;48.090;16.212;2023-02-08T08:55:07;100089.47;;;-2.30;64.20
15674;BME280;7937;48.090;16.212;2023-02-08T08:58:09;100095.69;;;-2.06;63.70
15674;BME280;7937;48.090;16.212;2023-02-08T09:01:11;100096.97;;;-1.86;63.30
15674;BME280;7937;48.090;16.212;2023-02-08T09:04:15;100106.16;;;-1.68;62.91
15674;BME280;7937;48.090;16.212;2023-02-08T09:07:17;100111.72;;;-1.47;62.82
15674;BME280;7937;48.090;16.212;2023-02-08T09:10:19;100087.88;;;-1.55;62.14
15674;BME280;7937;48.090;16.212;2023-02-08T09:13:21;100121.72;;;-1.15;60.90
15674;BME280;7937;48.090;16.212;2023-02-08T09:16:23;100130.84;;;-1.08;60.14
15674;BME280;7937;48.090;16.212;2023-02-08T09:19:26;100151.75;;;-1.08;59.02
15674;BME280;7937;48.090;16.212;2023-02-08T09:22:28;100113.03;;;-1.28;59.08
15674;BME280;7937;48.090;16.212;2023-02-08T09:25:30;100147.03;;;-1.03;58.30
15674;BME280;7937;48.090;16.212;2023-02-08T09:28:34;100149.97;;;-1.08;57.97
15674;BME280;7937;48.090;16.212;2023-02-08T09:31:36;100143.69;;;-1.05;58.41
15674;BME280;7937;48.090;16.212;2023-02-08T09:34:38;100143.03;;;-1.09;57.73
15674;BME280;7937;48.090;16.212;2023-02-08T09:37:41;100139.06;;;-1.14;58.03
15674;BME280;7937;48.090;16.212;2023-02-08T09:41:00;100143.88;;;-0.95;57.87
15674;BME280;7937;48.090;16.212;2023-02-08T09:47:59;100155.78;;;-0.79;57.55
15674;BME280;7937;48.090;16.212;2023-02-08T09:54:35;100138.31;;;-0.91;56.99
15674;BME280;7937;48.090;16.212;2023-02-08T09:57:38;100151.25;;;-0.64;56.85
15674;BME280;7937;48.090;16.212;2023-02-08T10:00:43;100152.28;;;-0.66;56.42
15674;BME280;7937;48.090;16.212;2023-02-08T10:03:48;100161.84;;;-0.78;56.58
15674;BME280;7937;48.090;16.212;2023-02-08T10:06:52;100150.75;;;-0.82;57.17
15674;BME280;7937;48.090;16.212;2023-02-08T10:09:57;100168.19;;;-0.69;57.15
15674;BME280;7937;48.090;16.212;2023-02-08T10:13:28;100165.25;;;-0.65;57.29
15674;BME280;7937;48.090;16.212;2023-02-08T10:20:14;100159.09;;;-0.40;57.06
15674;BME280;7937;48.090;16.212;2023-02-08T10:26:48;100158.84;;;-0.48;55.74
15674;BME280;7937;48.090;16.212;2023-02-08T10:30:10;100167.41;;;-0.46;56.20
15674;BME280;7937;48.090;16.212;2023-02-08T10:33:20;100161.22;;;-0.45;56.77
15674;BME280;7937;48.090;16.212;2023-02-08T10:36:30;100155.09;;;-0.69;57.13
15674;BME280;7937;48.090;16.212;2023-02-08T10:39:34;100154.59;;;-0.74;57.08
15674;BME280;7937;48.090;16.212;2023-02-08T10:42:38;100158.09;;;-0.87;57.40
15674;BME280;7937;48.090;16.212;2023-02-08T10:45:59;100157.72;;;-0.69;57.60
15674;BME280;7937;48.090;16.212;2023-02-08T10:49:21;100151.19;;;-0.51;57.63
15674;BME280;7937;48.090;16.212;2023-02-08T10:52:26;100149.81;;;-0.44;57.52
15674;BME280;7937;48.090;16.212;2023-02-08T10:55:30;100142.97;;;-0.34;57.04
15674;BME280;7937;48.090;16.212;2023-02-08T10:58:36;100148.91;;;-0.32;57.02
15674;BME280;7937;48.090;16.212;2023-02-08T11:01:38;100147.16;;;-0.20;56.86
15674;BME280;7937;48.090;16.212;2023-02-08T11:05:09;100113.66;;;-0.39;56.68
15674;BME280;7937;48.090;16.212;2023-02-08T11:08:15;100149.72;;;-0.07;56.36
15674;BME280;7937;48.090;16.212;2023-02-08T11:11:20;100148.13;;;0.14;56.09
15674;BME280;7937;48.090;16.212;2023-02-08T11:14:28;100149.16;;;0.36;55.22
15674;BME280;7937;48.090;16.212;2023-02-08T11:17:52;100145.59;;;0.37;54.36
15674;BME280;7937;48.090;16.212;2023-02-08T11:20:58;100147.72;;;0.32;54.87
15674;BME280;7937;48.090;16.212;2023-02-08T11:27:33;100150.41;;;0.65;54.37
15674;BME280;7937;48.090;16.212;2023-02-08T11:30:35;100146.53;;;0.36;54.08
15674;BME280;7937;48.090;16.212;2023-02-08T11:33:56;100142.75;;;0.40;54.06
15674;BME280;7937;48.090;16.212;2023-02-08T11:37:04;100144.06;;;0.45;54.00
15674;BME280;7937;48.090;16.212;2023-02-08T11:40:20;100137.16;;;0.78;53.52
15674;BME280;7937;48.090;16.212;2023-02-08T11:43:29;100133.72;;;0.77;53.02
15674;BME280;7937;48.090;16.212;2023-02-08T11:46:35;100088.41;;;0.75;53.24
15674;BME280;7937;48.090;16.212;2023-02-08T11:49:40;100119.63;;;1.01;52.48
15674;BME280;7937;48.090;16.212;2023-02-08T11:52:42;100119.53;;;1.14;52.17
15674;BME280;7937;48.090;16.212;2023-02-08T11:56:21;100101.63;;;1.51;50.13
15674;BME280;7937;48.090;16.212;2023-02-08T11:59:24;100104.72;;;1.88;48.84
15674;BME280;7937;48.090;16.212;2023-02-08T12:02:37;100103.25;;;1.95;47.78
15674;BME280;7937;48.090;16.212;2023-02-08T12:06:31;100093.78;;;1.83;45.68
15674;BME280;7937;48.090;16.212;2023-02-08T12:16:02;100089.53;;;1.92;45.47
15674;BME280;7937;48.090;16.212;2023-02-08T12:19:17;100090.53;;;1.59;45.38
15674;BME280;7937;48.090;16.212;2023-02-08T12:22:25;100085.47;;;1.35;45.33
15674;BME280;7937;48.090;16.212;2023-02-08T12:36:38;100089.53;;;1.16;46.40
15674;BME280;7937;48.090;16.212;2023-02-08T12:39:54;100083.50;;;1.05;47.01
15674;BME280;7937;48.090;16.212;2023-02-08T12:50:23;100071.28;;;1.26;46.58
15674;BME280;7937;48.090;16.212;2023-02-08T12:53:51;100071.03;;;1.29;46.63
15674;BME280;7937;48.090;16.212;2023-02-08T12:56:57;100066.03;;;1.26;47.08
15674;BME280;7937;48.090;16.212;2023-02-08T13:00:06;100074.19;;;1.00;48.14
15674;BME280;7937;48.090;16.212;2023-02-08T13:03:28;100071.56;;;1.00;47.86
15674;BME280;7937;48.090;16.212;2023-02-08T13:06:41;100065.88;;;1.27;48.11
15674;BME280;7937;48.090;16.212;2023-02-08T13:10:02;100063.25;;;1.27;47.62
15674;BME280;7937;48.090;16.212;2023-02-08T13:16:21;100050.97;;;1.28;46.00
15674;BME280;7937;48.090;16.212;2023-02-08T13:19:32;100051.22;;;1.25;45.98
15674;BME280;7937;48.090;16.212;2023-02-08T13:22:45;100047.78;;;1.13;45.91
15674;BME280;7937;48.090;16.212;2023-02-08T13:25:50;100054.84;;;1.01;46.73
15674;BME280;7937;48.090;16.212;2023-02-08T13:28:55;100062.22;;;1.08;46.81
15674;BME280;7937;48.090;16.212;2023-02-08T13:32:02;100040.41;;;1.07;46.67
15674;BME280;7937;48.090;16.212;2023-02-08T13:35:13;100037.31;;;1.02;46.97
15674;BME280;7937;48.090;16.212;2023-02-08T13:38:36;100051.63;;;0.98;46.78
15674;BME280;7937;48.090;16.212;2023-02-08T13:41:50;100034.81;;;1.00;46.89
15674;BME280;7937;48.090;16.212;2023-02-08T13:44:55;100035.19;;;0.96;47.52
15674;BME280;7937;48.090;16.212;2023-02-08T13:48:00;100032.81;;;0.82;47.84
15674;BME280;7937;48.090;16.212;2023-02-08T13:51:03;100019.34;;;0.64;48.25
15674;BME280;7937;48.090;16.212;2023-02-08T13:54:11;100033.19;;;0.77;48.83
15674;BME280;7937;48.090;16.212;2023-02-08T14:10:17;100036.91;;;0.41;50.04
15674;BME280;7937;48.090;16.212;2023-02-08T14:13:28;100035.25;;;0.40;50.50
15674;BME280;7937;48.090;16.212;2023-02-08T14:16:39;100026.06;;;0.45;50.61
15674;BME280;7937;48.090;16.212;2023-02-08T14:19:43;100027.38;;;0.51;50.73
15674;BME280;7937;48.090;16.212;2023-02-08T14:22:50;100010.53;;;0.54;50.24
15674;BME280;7937;48.090;16.212;2023-02-08T14:25:54;100026.66;;;0.60;50.27
15674;BME280;7937;48.090;16.212;2023-02-08T14:29:00;100024.59;;;0.64;50.22
15674;BME280;7937;48.090;16.212;2023-02-08T14:32:03;100026.19;;;0.55;50.23
15674;BME280;7937;48.090;16.212;2023-02-08T14:35:08;100025.31;;;0.43;51.07
15674;BME280;7937;48.090;16.212;2023-02-08T14:44:44;100023.69;;;0.31;51.12
15674;BME280;7937;48.090;16.212;2023-02-08T14:47:51;100014.03;;;0.20;51.19
15674;BME280;7937;48.090;16.212;2023-02-08T14:51:03;100011.97;;;0.02;51.45
15674;BME280;7937;48.090;16.212;2023-02-08T14:54:18;100006.00;;;-0.01;51.51
15674;BME280;7937;48.090;16.212;2023-02-08T15:00:33;100030.66;;;0.08;52.18
15674;BME280;7937;48.090;16.212;2023-02-08T15:03:35;100011.09;;;-0.21;52.99
15674;BME280;7937;48.090;16.212;2023-02-08T15:07:13;99928.13;;;-0.79;52.98
15674;BME280;7937;48.090;16.212;2023-02-08T15:10:21;100039.41;;;-0.27;53.61
15674;BME280;7937;48.090;16.212;2023-02-08T15:13:24;100041.19;;;-0.27;53.85
15674;BME280;7937;48.090;16.212;2023-02-08T15:16:42;100021.03;;;-0.49;53.55
15674;BME280;7937;48.090;16.212;2023-02-08T15:19:45;100021.84;;;-0.48;53.59
15674;BME280;7937;48.090;16.212;2023-02-08T15:22:47;100044.38;;;-0.35;54.08
15674;BME280;7937;48.090;16.212;2023-02-08T15:26:19;100035.59;;;-0.34;54.29
15674;BME280;7937;48.090;16.212;2023-02-08T15:29:29;100033.66;;;-0.43;54.93
15674;BME280;7937;48.090;16.212;2023-02-08T15:32:45;100032.16;;;-0.58;55.68
15674;BME280;7937;48.090;16.212;2023-02-08T15:36:07;100032.84;;;-0.67;56.08
15674;BME280;7937;48.090;16.212;2023-02-08T15:39:35;100036.28;;;-0.67;56.08
15674;BME280;7937;48.090;16.212;2023-02-08T15:42:42;100034.34;;;-0.76;56.77
15674;BME280;7937;48.090;16.212;2023-02-08T15:45:55;100022.06;;;-0.99;57.14
15674;BME280;7937;48.090;16.212;2023-02-08T15:48:58;100042.66;;;-0.95;57.98
15674;BME280;7937;48.090;16.212;2023-02-08T15:52:01;100047.19;;;-0.97;57.78
15674;BME280;7937;48.090;16.212;2023-02-08T15:55:07;100040.50;;;-1.01;57.29
15674;BME280;7937;48.090;16.212;2023-02-08T15:58:33;100055.56;;;-1.05;57.05
15674;BME280;7937;48.090;16.212;2023-02-08T16:01:36;100038.22;;;-1.06;57.28
15674;BME280;7937;48.090;16.212;2023-02-08T16:04:42;100049.94;;;-1.11;57.47
15674;BME280;7937;48.090;16.212;2023-02-08T16:07:46;100050.72;;;-1.22;58.54
15674;BME280;7937;48.090;16.212;2023-02-08T16:10:52;100046.84;;;-1.29;58.56
15674;BME280;7937;48.090;16.212;2023-02-08T16:13:57;100040.63;;;-1.52;58.99
15674;BME280;7937;48.090;16.212;2023-02-08T16:17:01;100053.59;;;-1.50;59.01
15674;BME280;7937;48.090;16.212;2023-02-08T16:20:28;100061.44;;;-1.63;58.98
15674;BME280;7937;48.090;16.212;2023-02-08T16:23:37;100023.81;;;-1.99;59.41
15674;BME280;7937;48.090;16.212;2023-02-08T16:29:45;100057.31;;;-2.18;60.51
15674;BME280;7937;48.090;16.212;2023-02-08T16:32:48;100055.84;;;-2.22;60.63
15674;BME280;7937;48.090;16.212;2023-02-08T16:35:52;100057.31;;;-2.31;61.12
15674;BME280;7937;48.090;16.212;2023-02-08T16:45:27;100062.06;;;-2.50;61.37
15674;BME280;7937;48.090;16.212;2023-02-08T16:48:35;100051.00;;;-2.54;60.82
15674;BME280;7937;48.090;16.212;2023-02-08T16:51:38;100050.56;;;-2.61;61.20
15674;BME280;7937;48.090;16.212;2023-02-08T16:54:44;100054.72;;;-2.71;61.33
15674;BME280;7937;48.090;16.212;2023-02-08T16:57:49;100026.25;;;-2.88;61.51
15674;BME280;7937;48.090;16.212;2023-02-08T17:00:56;100057.34;;;-2.85;61.80
15674;BME280;7937;48.090;16.212;2023-02-08T17:04:00;100053.56;;;-2.94;62.31
15674;BME280;7937;48.090;16.212;2023-02-08T17:07:03;100052.22;;;-3.14;62.39
15674;BME280;7937;48.090;16.212;2023-02-08T17:10:07;100060.75;;;-3.12;62.10
15674;BME280;7937;48.090;16.212;2023-02-08T17:13:11;100066.53;;;-3.21;62.45
15674;BME280;7937;48.090;16.212;2023-02-08T17:16:25;100069.81;;;-3.17;62.39
15674;BME280;7937;48.090;16.212;2023-02-08T17:19:29;100065.72;;;-3.21;62.34
15674;BME280;7937;48.090;16.212;2023-02-08T17:22:32;100035.22;;;-3.62;63.19
15674;BME280;7937;48.090;16.212;2023-02-08T17:25:34;100069.56;;;-3.55;63.53
15674;BME280;7937;48.090;16.212;2023-02-08T17:28:38;100064.63;;;-3.60;63.80
15674;BME280;7937;48.090;16.212;2023-02-08T17:31:41;100075.69;;;-3.71;64.46
15674;BME280;7937;48.090;16.212;2023-02-08T17:34:44;100076.78;;;-3.75;64.37
15674;BME280;7937;48.090;16.212;2023-02-08T17:37:48;100079.34;;;-3.73;64.19
15674;BME280;7937;48.090;16.212;2023-02-08T17:40:54;100084.97;;;-3.81;64.50
15674;BME280;7937;48.090;16.212;2023-02-08T17:43:56;100048.41;;;-4.08;64.64
15674;BME280;7937;48.090;16.212;2023-02-08T17:46:59;100082.03;;;-3.89;64.50
15674;BME280;7937;48.090;16.212;2023-02-08T17:50:03;100081.72;;;-3.99;64.93
15674;BME280;7937;48.090;16.212;2023-02-08T17:53:07;100084.59;;;-4.03;65.14
15674;BME280;7937;48.090;16.212;2023-02-08T17:56:10;100085.97;;;-4.12;65.77
15674;BME280;7937;48.090;16.212;2023-02-08T17:59:15;100096.84;;;-4.05;65.52
15674;BME280;7937;48.090;16.212;2023-02-08T18:02:17;100079.34;;;-4.18;65.55
15674;BME280;7937;48.090;16.212;2023-02-08T18:05:24;100063.06;;;-4.21;65.66
15674;BME280;7937;48.090;16.212;2023-02-08T18:08:27;100083.53;;;-4.15;65.60
15674;BME280;7937;48.090;16.212;2023-02-08T18:11:29;100083.72;;;-4.18;65.38
15674;BME280;7937;48.090;16.212;2023-02-08T18:14:32;100080.34;;;-4.20;65.20